Time;durP1;ratioP1;P1;durP2;ratioP2;P2;SDS_P1;SDS_P2;PMS_P1;PMS_P2;Temp;Humidity;BMP_temperature;BMP_pressure;BME280_temperature;BME280_humidity;BME280_pressure;Samples;Min_cycle;Max_cycle;Signal;HPM_P1;HPM_P2
2022/04/04 00:02:18;;;;;;;12.52;7.00;;;;;;;-1.32;70.14;100779.53;5572183;32;33849;-82
2022/04/04 00:05:21;;;;;;;9.30;6.55;;;;;;;-1.17;69.30;100780.50;5572360;32;33796;-82
2022/04/04 00:08:25;;;;;;;9.98;6.57;;;;;;;-1.28;70.12;100791.72;5572394;32;33947;-82
2022/04/04 00:11:29;;;;;;;12.25;7.32;;;;;;;-1.27;69.75;100785.63;5572928;32;34436;-82
2022/04/04 00:14:31;;;;;;;9.32;6.78;;;;;;;-1.38;70.91;100782.09;5574659;32;33864;-82
2022/04/04 00:17:34;;;;;;;11.95;7.12;;;;;;;-1.43;71.11;100782.06;5577676;32;33856;-82
2022/04/04 00:20:39;;;;;;;9.38;6.60;;;;;;;-1.33;70.76;100783.00;5575119;32;34630;-82
2022/04/04 00:23:42;;;;;;;9.60;7.00;;;;;;;-1.38;71.43;100782.97;5574258;32;34102;-82
2022/04/04 00:26:46;;;;;;;8.13;6.12;;;;;;;-1.46;71.71;100792.44;5573423;32;34041;-82
2022/04/04 00:29:49;;;;;;;10.30;6.62;;;;;;;-1.51;71.85;100801.97;5570085;32;34156;-82
2022/04/04 00:32:52;;;;;;;9.13;7.35;;;;;;;-1.55;72.17;100800.22;5569981;32;34550;-82
2022/04/04 00:35:54;;;;;;;9.27;6.53;;;;;;;-1.49;71.67;100800.25;5571372;32;33982;-82
2022/04/04 00:38:57;;;;;;;11.40;7.12;;;;;;;-1.42;71.39;100794.22;5571097;32;33953;-82
2022/04/04 00:42:00;;;;;;;10.57;7.12;;;;;;;-1.49;71.41;100782.87;5571882;32;34036;-82
2022/04/04 00:45:03;;;;;;;8.98;6.47;;;;;;;-1.54;71.30;100797.62;5571300;32;33685;-82
2022/04/04 00:48:06;;;;;;;9.00;6.72;;;;;;;-1.35;70.93;100787.34;5572950;32;35031;-82
2022/04/04 00:51:09;;;;;;;10.90;6.72;;;;;;;-1.25;70.05;100783.91;5575709;32;34848;-86
2022/04/04 00:54:14;;;;;;;11.35;7.15;;;;;;;-1.50;71.32;100783.75;5572509;32;34749;-86
2022/04/04 00:57:18;;;;;;;10.40;6.95;;;;;;;-1.55;71.09;100788.06;5571856;32;34096;-88
2022/04/04 01:00:21;;;;;;;11.45;6.72;;;;;;;-1.51;72.06;100786.37;5572752;32;33955;-83
2022/04/04 01:03:25;;;;;;;9.48;6.85;;;;;;;-1.43;71.28;100784.69;5573429;32;33633;-82
2022/04/04 01:06:28;;;;;;;9.63;6.80;;;;;;;-1.53;71.85;100785.47;5576502;32;34067;-82
2022/04/04 01:09:31;;;;;;;10.48;7.30;;;;;;;-1.61;72.39;100787.16;5573497;32;34321;-82
2022/04/04 01:12:34;;;;;;;8.20;6.47;;;;;;;-1.46;71.69;100783.78;5573034;32;34527;-82
2022/04/04 01:15:37;;;;;;;11.93;7.03;;;;;;;-1.65;73.05;100786.25;5572828;32;34946;-82
2022/04/04 01:18:41;;;;;;;11.35;7.50;;;;;;;-1.59;72.73;100782.81;5573343;32;34597;-82
2022/04/04 04:11:27;;;;;;;15.02;7.95;;;;;;;-2.58;75.24;100844.31;5550462;32;490347;-87
2022/04/04 04:14:31;;;;;;;15.45;8.27;;;;;;;-2.73;76.15;100845.00;5547815;32;33824;-87
2022/04/04 04:17:34;;;;;;;15.25;8.68;;;;;;;-2.74;77.12;100842.38;5547674;32;34156;-88
2022/04/04 04:20:37;;;;;;;16.10;8.00;;;;;;;-2.74;76.64;100843.25;5548595;32;34309;-83
2022/04/04 04:23:42;;;;;;;14.70;8.27;;;;;;;-2.80;76.99;100845.78;5548311;32;34216;-84
2022/04/04 04:26:45;;;;;;;12.20;8.00;;;;;;;-2.81;76.71;100844.03;5548128;32;34571;-83
2022/04/04 04:29:48;;;;;;;11.98;7.75;;;;;;;-2.72;77.13;100846.72;5547306;32;34092;-84
2022/04/04 04:32:53;;;;;;;10.00;7.40;;;;;;;-2.77;77.55;100840.59;5544827;32;33996;-83
2022/04/04 04:35:57;;;;;;;12.07;7.60;;;;;;;-2.68;76.26;100846.78;5543970;32;33424;-83
2022/04/04 04:38:59;;;;;;;14.98;8.52;;;;;;;-2.38;74.51;100841.06;5543783;32;33870;-83
2022/04/04 04:42:02;;;;;;;13.52;8.50;;;;;;;-2.19;72.85;100841.25;5543450;32;34506;-83
2022/04/04 04:45:07;;;;;;;13.57;8.38;;;;;;;-2.09;72.68;100845.72;5544224;32;33830;-82
2022/04/04 04:48:10;;;;;;;11.98;8.35;;;;;;;-2.11;74.62;100846.56;5544873;32;33805;-83
2022/04/04 04:51:12;;;;;;;13.38;8.85;;;;;;;-2.18;73.95;100845.59;5542110;32;33836;-83
2022/04/04 04:54:16;;;;;;;15.93;9.25;;;;;;;-2.15;74.69;100849.97;5545535;32;34000;-83
2022/04/04 04:57:20;;;;;;;11.73;8.43;;;;;;;-2.10;74.77;100849.16;5540736;32;34273;-83
2022/04/04 05:00:26;;;;;;;15.90;9.35;;;;;;;-2.04;73.22;100851.84;5545827;32;34045;-83
2022/04/04 05:03:29;;;;;;;14.00;8.85;;;;;;;-1.97;72.57;100855.34;5547784;32;33958;-83
2022/04/04 05:06:32;;;;;;;14.05;8.68;;;;;;;-1.86;72.39;100855.44;5548265;32;34038;-83
2022/04/04 05:09:35;;;;;;;14.68;9.13;;;;;;;-1.75;71.24;100850.34;5547643;32;33617;-83
2022/04/04 05:12:38;;;;;;;14.35;9.43;;;;;;;-1.58;71.04;100858.28;5547424;32;33964;-83
2022/04/04 05:15:41;;;;;;;14.63;8.98;;;;;;;-1.41;70.86;100858.41;5546640;32;34000;-83
2022/04/04 05:18:44;;;;;;;12.70;9.10;;;;;;;-1.35;71.33;100855.00;5549633;32;34462;-83
2022/04/04 05:21:48;;;;;;;16.62;9.60;;;;;;;-1.32;70.24;100862.81;5538824;32;34274;-84
2022/04/04 05:24:51;;;;;;;12.80;8.52;;;;;;;-1.29;70.46;100865.47;5534702;32;34732;-83
2022/04/04 05:27:55;;;;;;;15.80;9.85;;;;;;;-1.10;69.21;100869.03;5533647;32;34563;-86
2022/04/04 05:30:59;;;;;;;13.00;9.10;;;;;;;-1.03;69.47;100869.97;5523040;32;33778;-84
2022/04/04 05:34:07;;;;;;;16.23;9.68;;;;;;;-0.93;68.88;100870.91;5514337;32;33518;-85
2022/04/04 05:37:12;;;;;;;13.60;9.45;;;;;;;-0.71;67.68;100871.88;5514953;32;33829;-85
2022/04/04 05:40:15;;;;;;;16.37;9.30;;;;;;;-0.49;65.92;100874.59;5511329;32;33625;-85
2022/04/04 05:43:18;;;;;;;13.35;9.30;;;;;;;-0.23;65.12;100878.13;5511441;32;33459;-85
2022/04/04 05:46:22;;;;;;;13.95;9.93;;;;;;;0.21;62.74;100884.34;5515705;32;33778;-85
2022/04/04 05:49:25;;;;;;;12.30;9.27;;;;;;;0.61;61.47;100879.12;5526317;32;34101;-86
2022/04/04 05:52:28;;;;;;;16.15;9.52;;;;;;;0.97;60.19;100886.94;5521561;32;33746;-85
2022/04/04 05:55:31;;;;;;;14.45;9.43;;;;;;;1.36;57.95;100885.97;5524876;32;33799;-85
2022/04/04 05:58:36;;;;;;;14.75;9.85;;;;;;;2.64;54.79;100886.97;5525151;32;34006;-85
2022/04/04 06:01:40;;;;;;;14.52;9.30;;;;;;;4.84;48.73;100881.50;5535369;32;33947;-85
2022/04/04 06:04:43;;;;;;;12.48;9.23;;;;;;;5.57;45.59;100893.25;5526209;32;34145;-86
2022/04/04 06:07:45;;;;;;;14.75;10.18;;;;;;;6.41;43.28;100885.31;5529610;32;33529;-85
2022/04/04 06:10:48;;;;;;;13.05;8.95;;;;;;;6.19;42.83;100884.03;5534349;32;33986;-86
2022/04/04 06:13:51;;;;;;;11.30;8.73;;;;;;;6.78;42.68;100881.75;5534672;32;34192;-86
2022/04/04 06:16:54;;;;;;;12.13;8.60;;;;;;;9.02;38.85;100888.28;5529918;32;34828;-86
2022/04/04 06:19:56;;;;;;;14.98;7.70;;;;;;;10.27;35.39;100877.50;5512430;32;34330;-86
2022/04/04 06:22:59;;;;;;;8.52;7.12;;;;;;;11.01;33.85;100877.09;5511979;32;34115;-91
2022/04/04 06:26:06;;;;;;;14.25;7.53;;;;;;;10.74;32.16;100885.31;5513382;32;34131;-90
2022/04/04 06:29:09;;;;;;;8.60;7.35;;;;;;;10.84;33.21;100891.09;5512910;32;35169;-87
2022/04/04 06:32:12;;;;;;;8.68;7.03;;;;;;;11.56;31.34;100890.63;5509541;32;33753;-87
2022/04/04 06:35:15;;;;;;;10.15;6.90;;;;;;;10.06;33.15;100890.69;5511996;32;33853;-86
2022/04/04 06:38:18;;;;;;;8.88;6.90;;;;;;;9.09;33.71;100893.34;5511995;32;34307;-86
2022/04/04 06:41:21;;;;;;;8.50;6.85;;;;;;;8.96;35.75;100891.13;5510187;32;33879;-86
2022/04/04 06:44:24;;;;;;;11.38;7.40;;;;;;;10.07;33.96;100895.06;5510655;32;34186;-86
2022/04/04 06:47:27;;;;;;;7.60;6.40;;;;;;;10.52;33.37;100888.84;5515796;32;34152;-86
2022/04/04 06:50:30;;;;;;;10.18;7.20;;;;;;;12.09;30.72;100893.53;5529250;32;33642;-86
2022/04/04 06:53:33;;;;;;;10.88;7.30;;;;;;;10.98;30.76;100893.16;5530137;32;34108;-86
2022/04/04 06:56:36;;;;;;;7.97;7.18;;;;;;;11.17;31.80;100890.53;5528863;32;33445;-86
2022/04/04 06:59:39;;;;;;;10.13;7.32;;;;;;;11.07;31.47;100902.53;5527017;32;33780;-86
2022/04/04 07:02:44;;;;;;;10.95;7.20;;;;;;;10.74;31.63;100908.31;5529545;32;34177;-85
2022/04/04 07:05:47;;;;;;;11.77;6.57;;;;;;;11.95;29.73;100905.66;5526454;32;34493;-85
2022/04/04 07:08:49;;;;;;;9.55;6.78;;;;;;;11.33;29.06;100898.69;5521845;32;34795;-85
2022/04/04 07:11:53;;;;;;;8.82;6.72;;;;;;;12.44;28.36;100900.75;5521429;32;33930;-85
2022/04/04 07:14:56;;;;;;;8.38;6.30;;;;;;;13.51;26.40;100907.78;5517373;32;33677;-86
2022/04/04 07:17:59;;;;;;;8.23;6.45;;;;;;;12.48;26.13;100897.00;5530428;32;33792;-86
2022/04/04 07:21:02;;;;;;;7.28;6.47;;;;;;;13.27;26.52;100905.47;5528694;32;33906;-86
2022/04/04 07:24:05;;;;;;;8.27;6.55;;;;;;;14.21;24.54;100891.50;5522438;32;33930;-86
2022/04/04 07:27:08;;;;;;;10.45;6.85;;;;;;;12.88;25.87;100899.47;5511219;32;34342;-86
2022/04/04 07:30:14;;;;;;;9.55;6.68;;;;;;;13.11;26.00;100895.59;5519241;32;35074;-85
2022/04/04 07:33:18;;;;;;;9.93;6.97;;;;;;;15.28;23.20;100897.75;5518125;32;33264;-85
2022/04/04 07:36:22;;;;;;;7.22;6.53;;;;;;;14.03;24.17;100890.72;5529181;32;33945;-87
2022/04/04 07:39:24;;;;;;;7.68;6.78;;;;;;;13.07;25.25;100896.69;5529757;32;34692;-86
2022/04/04 07:42:28;;;;;;;8.70;6.15;;;;;;;16.10;21.76;100890.94;5521092;32;33919;-86
2022/04/04 07:45:31;;;;;;;6.40;5.62;;;;;;;13.92;21.67;100891.31;5527627;32;34759;-85
2022/04/04 07:48:34;;;;;;;7.60;5.93;;;;;;;15.81;20.95;100889.16;5512798;32;33409;-86
2022/04/04 07:51:37;;;;;;;5.97;4.70;;;;;;;15.46;21.89;100889.56;5518966;32;33930;-85
2022/04/04 07:54:42;;;;;;;5.40;4.90;;;;;;;17.47;19.84;100887.16;5520890;32;34754;-86
2022/04/04 07:57:45;;;;;;;5.45;4.75;;;;;;;19.14;16.60;100889.28;5518365;32;32272;-86
2022/04/04 08:00:49;;;;;;;5.90;4.87;;;;;;;17.56;18.27;100891.00;5510676;32;33769;-86
2022/04/04 08:03:52;;;;;;;6.62;5.32;;;;;;;16.22;18.78;100889.28;5512863;32;34459;-86
2022/04/04 08:06:55;;;;;;;5.47;4.90;;;;;;;14.45;20.78;100883.03;5509034;32;33949;-85
2022/04/04 08:09:58;;;;;;;5.87;5.00;;;;;;;15.67;19.36;100873.09;5513812;32;33875;-87
2022/04/04 08:13:01;;;;;;;7.12;5.40;;;;;;;13.78;21.52;100875.25;5521418;32;33968;-86
2022/04/04 08:16:04;;;;;;;7.12;5.78;;;;;;;11.68;24.15;100874.09;5540729;32;34199;-86
2022/04/04 08:19:07;;;;;;;6.80;5.53;;;;;;;11.68;25.51;100879.41;5539742;32;34599;-85
2022/04/04 08:22:12;;;;;;;7.90;5.70;;;;;;;11.18;26.03;100873.69;5527366;32;34078;-86
2022/04/04 08:25:16;;;;;;;7.10;5.70;;;;;;;12.44;25.99;100875.00;5519292;32;32629;-86
2022/04/04 08:28:19;;;;;;;6.10;4.95;;;;;;;11.56;25.24;100878.22;5516663;32;33582;-87
2022/04/04 08:31:24;;;;;;;5.35;4.90;;;;;;;10.41;26.92;100876.94;5522888;32;33923;-87
2022/04/04 08:34:31;;;;;;;8.15;5.40;;;;;;;10.49;27.34;100872.19;5511568;32;34581;-87
2022/04/04 08:37:41;;;;;;;8.40;5.03;;;;;;;11.49;28.73;100863.47;5522086;32;34421;-90
2022/04/04 08:40:44;;;;;;;12.77;5.28;;;;;;;10.29;27.32;100860.59;5529709;32;34215;-87
2022/04/04 08:43:51;;;;;;;7.65;5.50;;;;;;;11.77;28.63;100859.53;5512250;32;34044;-86
2022/04/04 08:46:54;;;;;;;6.82;5.95;;;;;;;10.82;27.07;100854.94;5507757;32;33862;-86
2022/04/04 08:49:58;;;;;;;7.50;5.10;;;;;;;10.95;26.80;100850.81;5515648;32;33175;-86
2022/04/04 08:53:02;;;;;;;6.35;4.80;;;;;;;10.62;28.58;100838.91;5512421;32;34154;-86
2022/04/04 08:56:06;;;;;;;5.87;4.93;;;;;;;10.20;26.74;100845.94;5509688;32;33818;-86
2022/04/04 08:59:09;;;;;;;4.95;4.45;;;;;;;11.67;28.62;100839.66;5516009;32;34785;-87
2022/04/04 09:02:13;;;;;;;5.40;4.90;;;;;;;11.51;26.99;100828.88;5530907;32;33863;-87
2022/04/04 09:05:16;;;;;;;5.80;4.65;;;;;;;10.05;27.12;100825.34;5527209;32;35272;-87
2022/04/04 09:08:25;;;;;;;9.98;5.15;;;;;;;11.40;26.59;100824.91;5518623;32;34143;-87
2022/04/04 09:11:34;;;;;;;5.72;5.12;;;;;;;10.47;26.80;100819.22;5530789;32;33775;-87
2022/04/04 09:14:54;;;;;;;5.80;5.30;;;;;;;11.01;28.06;100818.69;5527099;32;34796;-88
2022/04/04 09:17:57;;;;;;;7.05;5.50;;;;;;;11.26;28.43;100812.25;5512116;32;33833;-87
2022/04/04 09:21:00;;;;;;;7.07;5.72;;;;;;;11.95;28.54;100806.41;5515308;32;34029;-88
2022/04/04 09:24:07;;;;;;;6.15;5.18;;;;;;;11.84;25.79;100802.50;5512315;32;34059;-88
2022/04/04 09:27:13;;;;;;;5.57;5.07;;;;;;;12.31;25.81;100794.94;5511506;32;34672;-87
2022/04/04 09:30:21;;;;;;;7.12;5.80;;;;;;;12.77;27.84;100790.88;5528960;32;34338;-87
2022/04/04 09:33:35;;;;;;;7.60;5.90;;;;;;;13.17;27.46;100798.50;5530503;32;33729;-87
2022/04/04 09:36:46;;;;;;;6.10;5.50;;;;;;;13.42;28.27;100787.38;5514141;32;34570;-88
2022/04/04 09:40:09;;;;;;;6.85;5.53;;;;;;;13.98;25.76;100786.97;5517154;32;35161;-88
2022/04/04 09:43:17;;;;;;;7.47;5.82;;;;;;;13.86;28.60;100777.00;5529349;32;34534;-92
2022/04/04 09:46:20;;;;;;;8.10;6.07;;;;;;;14.17;24.62;100771.72;5528831;32;34932;-92
2022/04/04 09:49:24;;;;;;;8.23;6.00;;;;;;;14.00;26.06;100760.22;5512376;32;36544;-92
2022/04/04 09:52:27;;;;;;;5.87;5.30;;;;;;;14.55;25.68;100761.41;5525723;32;34083;-87
2022/04/04 09:55:49;;;;;;;7.95;5.70;;;;;;;13.86;25.22;100753.00;5516151;32;33203;-88
2022/04/04 09:58:52;;;;;;;;;;;;;;;13.92;25.85;100757.97;5518750;32;34842;-87
2022/04/04 10:01:55;;;;;;;6.47;5.50;;;;;;;13.42;25.02;100750.06;5525603;32;34312;-86
2022/04/04 10:05:01;;;;;;;6.43;5.55;;;;;;;13.28;24.72;100734.00;5525315;32;33814;-86
2022/04/04 10:08:05;;;;;;;9.40;5.62;;;;;;;13.01;28.13;100737.22;5515704;32;34596;-87
2022/04/04 10:11:11;;;;;;;6.43;5.30;;;;;;;13.28;26.49;100742.84;5517285;32;34030;-86
2022/04/04 10:14:16;;;;;;;7.32;5.53;;;;;;;12.48;26.96;100735.53;5509632;32;33988;-86
2022/04/04 10:17:19;;;;;;;6.85;5.47;;;;;;;12.56;26.57;100723.66;5512347;32;33676;-86
2022/04/04 10:20:22;;;;;;;6.62;5.50;;;;;;;14.21;24.99;100714.53;5509725;32;33969;-84
2022/04/04 10:23:27;;;;;;;6.70;6.03;;;;;;;14.80;23.99;100713.69;5520326;32;33719;-84
2022/04/04 10:26:34;;;;;;;5.97;5.15;;;;;;;15.66;22.32;100713.62;5513464;32;34417;-85
2022/04/04 10:29:39;;;;;;;6.12;5.25;;;;;;;14.39;24.25;100712.59;5520140;32;34143;-84
2022/04/04 10:32:53;;;;;;;6.53;5.28;;;;;;;13.93;24.49;100703.69;5527396;32;34862;-83
2022/04/04 10:36:03;;;;;;;6.68;5.70;;;;;;;12.30;26.04;100704.56;5532691;32;33837;-84
2022/04/04 10:39:09;;;;;;;5.87;5.37;;;;;;;10.32;28.47;100709.31;5535620;32;33841;-83
2022/04/04 10:42:41;;;;;;;7.30;6.07;;;;;;;10.61;29.26;100698.41;5532847;32;34228;-85
2022/04/04 10:45:55;;;;;;;6.65;5.97;;;;;;;10.07;29.64;100697.09;5523507;32;34472;-86
2022/04/04 10:49:01;;;;;;;10.95;5.65;;;;;;;8.31;33.72;100695.88;5511742;32;35179;-89
2022/04/04 10:52:09;;;;;;;10.15;6.18;;;;;;;9.52;34.89;100687.03;5515770;32;34123;-89
2022/04/04 10:55:30;;;;;;;6.57;5.80;;;;;;;11.14;29.62;100674.75;5528274;32;35010;-86
2022/04/04 10:58:33;;;;;;;8.13;6.03;;;;;;;13.14;28.16;100668.19;5528205;32;34607;-86
2022/04/04 11:01:36;;;;;;;7.72;6.93;;;;;;;11.48;29.42;100666.97;5530316;32;33688;-85
2022/04/04 11:07:38;;;;;;;9.05;7.03;;;;;;;9.90;31.23;100668.69;5520690;32;34979;-86
2022/04/04 11:08:05;;;;;;;7.43;6.72;;;;;;;8.87;33.55;100666.59;5531000;32;35238;-86
2022/04/04 11:11:19;;;;;;;7.70;6.47;;;;;;;9.61;32.71;100656.66;5529226;32;34065;-86
2022/04/04 11:14:28;;;;;;;6.97;6.28;;;;;;;8.96;34.57;100666.22;5524074;32;33904;-86
2022/04/04 11:17:33;;;;;;;7.68;6.55;;;;;;;8.26;34.52;100663.47;5522218;32;34656;-85
2022/04/04 11:20:46;;;;;;;7.45;6.30;;;;;;;8.18;34.31;100662.84;5524811;32;33663;-86
2022/04/04 11:23:49;;;;;;;6.70;6.00;;;;;;;8.58;34.05;100656.19;5509504;32;33973;-86
2022/04/04 11:26:52;;;;;;;8.70;6.47;;;;;;;8.69;34.03;100660.22;5510226;32;33686;-86
2022/04/04 11:29:55;;;;;;;7.20;6.35;;;;;;;8.81;33.55;100651.81;5509654;32;35338;-85
2022/04/04 11:32:59;;;;;;;9.77;6.25;;;;;;;8.57;33.83;100645.66;5514476;32;33785;-85
2022/04/04 11:36:09;;;;;;;8.55;6.20;;;;;;;8.40;34.87;100652.38;5518727;32;34822;-86
2022/04/04 11:39:15;;;;;;;8.70;6.30;;;;;;;8.42;35.58;100647.03;5511008;32;34126;-85
2022/04/04 11:42:22;;;;;;;7.37;6.45;;;;;;;8.27;35.64;100641.41;5516429;32;34971;-85
2022/04/04 11:45:27;;;;;;;7.72;6.53;;;;;;;8.35;35.19;100643.78;5529510;32;34556;-85
2022/04/04 11:48:36;;;;;;;9.15;5.97;;;;;;;8.27;35.69;100637.88;5536351;32;33972;-85
2022/04/04 11:51:39;;;;;;;9.40;6.28;;;;;;;8.57;36.21;100630.66;5532997;32;34600;-85
2022/04/04 11:54:42;;;;;;;7.45;6.40;;;;;;;8.59;35.04;100620.00;5518487;32;34941;-85
2022/04/04 11:57:49;;;;;;;10.02;6.70;;;;;;;8.19;37.16;100620.53;5521774;32;33891;-88
2022/04/04 12:00:55;;;;;;;8.55;6.32;;;;;;;8.39;36.77;100624.22;5526123;32;34913;-89
2022/04/04 12:04:00;;;;;;;8.38;6.43;;;;;;;8.62;36.17;100611.97;5522493;32;34973;-85
2022/04/04 12:07:05;;;;;;;7.85;6.28;;;;;;;8.85;35.95;100613.72;5512208;32;33432;-85
2022/04/04 12:10:16;;;;;;;7.80;6.70;;;;;;;8.86;36.16;100604.03;5511742;32;33920;-86
2022/04/04 12:13:21;;;;;;;8.60;6.37;;;;;;;8.77;35.44;100599.94;5509810;32;33857;-85
2022/04/04 12:16:27;;;;;;;7.45;6.50;;;;;;;8.47;37.06;100589.59;5516809;32;34210;-85
2022/04/04 12:19:30;;;;;;;9.65;6.93;;;;;;;8.57;37.22;100588.34;5526550;32;34403;-85
2022/04/04 12:25:57;;;;;;;10.60;8.40;;;;;;;8.69;39.67;100579.06;5528641;32;33904;-85
2022/04/04 12:29:00;;;;;;;10.82;6.85;;;;;;;9.14;36.71;100572.03;5510853;32;34252;-85
2022/04/04 12:32:03;;;;;;;9.10;6.60;;;;;;;8.97;36.66;100567.44;5512616;32;34300;-85
2022/04/04 12:35:08;;;;;;;9.85;6.62;;;;;;;8.59;36.62;100567.13;5527459;32;34368;-85
2022/04/04 12:38:24;;;;;;;9.10;7.57;;;;;;;8.32;38.28;100554.00;5520154;32;34555;-85
2022/04/04 12:41:27;;;;;;;8.02;6.90;;;;;;;8.30;39.15;100547.94;5512791;32;33806;-85
2022/04/04 12:44:30;;;;;;;8.57;7.03;;;;;;;8.34;38.11;100545.09;5528542;32;34744;-85
2022/04/04 12:47:34;;;;;;;8.25;7.05;;;;;;;8.10;38.42;100541.59;5515997;32;34232;-84
2022/04/04 12:50:46;;;;;;;7.43;6.07;;;;;;;7.68;39.57;100540.44;5534313;32;33662;-85
2022/04/04 12:53:52;;;;;;;10.45;6.95;;;;;;;7.56;39.52;100541.72;5534288;32;34065;-85
2022/04/04 12:56:55;;;;;;;9.13;6.85;;;;;;;7.39;41.13;100534.41;5526632;32;33809;-84
2022/04/04 12:59:58;;;;;;;9.02;6.97;;;;;;;7.21;41.67;100536.72;5527381;32;34017;-84
2022/04/04 13:03:24;;;;;;;10.25;7.47;;;;;;;7.36;41.83;100534.47;5528279;32;34128;-84
2022/04/04 13:06:32;;;;;;;8.75;7.03;;;;;;;7.53;41.21;100529.50;5516347;32;34381;-84
2022/04/04 13:09:36;;;;;;;11.60;7.05;;;;;;;7.24;41.95;100530.50;5525488;32;34006;-88
2022/04/04 13:12:41;;;;;;;8.65;6.80;;;;;;;7.21;42.05;100525.31;5525301;32;35264;-90
2022/04/04 13:15:47;;;;;;;9.77;7.40;;;;;;;7.23;41.66;100516.44;5523780;32;33620;-86
2022/04/04 13:19:15;;;;;;;8.70;6.97;;;;;;;7.26;42.99;100512.81;5528551;32;33319;-85
2022/04/04 13:22:18;;;;;;;9.13;7.28;;;;;;;7.37;43.34;100508.06;5521792;32;34336;-85
2022/04/04 13:25:21;;;;;;;8.90;7.25;;;;;;;7.62;42.28;100506.31;5520385;32;33791;-86
2022/04/04 13:28:23;;;;;;;9.77;7.62;;;;;;;7.48;42.26;100506.78;5530868;32;33901;-86
2022/04/04 13:31:27;;;;;;;9.18;7.07;;;;;;;7.23;42.02;100502.34;5520648;32;34784;-86
2022/04/04 13:34:30;;;;;;;10.25;6.93;;;;;;;7.15;42.74;100502.63;5519988;32;33978;-86
2022/04/04 13:37:33;;;;;;;10.90;7.30;;;;;;;7.08;44.28;100491.41;5525292;32;34398;-86
2022/04/04 13:40:36;;;;;;;11.57;7.07;;;;;;;6.69;45.18;100500.56;5513273;32;33727;-86
2022/04/04 13:43:39;;;;;;;9.07;6.80;;;;;;;7.14;44.66;100488.56;5517168;32;33478;-85
2022/04/04 13:46:42;;;;;;;13.35;7.68;;;;;;;7.26;42.75;100483.81;5517157;32;34770;-86
2022/04/04 13:49:45;;;;;;;8.73;6.70;;;;;;;7.06;43.69;100481.81;5525485;32;34007;-86
2022/04/04 13:52:48;;;;;;;12.35;6.65;;;;;;;7.02;43.99;100470.53;5536926;32;34689;-86
2022/04/04 13:55:51;;;;;;;9.82;6.57;;;;;;;7.12;43.74;100474.59;5524743;32;34318;-87
2022/04/04 13:58:56;;;;;;;10.45;6.37;;;;;;;7.28;43.12;100467.00;5516275;32;34584;-87
2022/04/04 14:01:59;;;;;;;10.77;7.00;;;;;;;7.25;44.00;100460.97;5521061;32;33893;-86
2022/04/04 14:05:02;;;;;;;8.60;6.65;;;;;;;7.20;43.95;100452.34;5529240;32;34193;-86
2022/04/04 14:08:05;;;;;;;12.02;6.65;;;;;;;7.31;44.03;100451.97;5515073;32;34055;-85
2022/04/04 14:11:10;;;;;;;9.25;6.57;;;;;;;7.08;44.70;100454.50;5529374;32;34349;-86
2022/04/04 14:14:13;;;;;;;9.45;6.55;;;;;;;7.06;44.16;100445.78;5526429;32;34726;-86
2022/04/04 14:17:17;;;;;;;10.55;7.10;;;;;;;6.94;44.70;100444.41;5510303;32;34757;-87
2022/04/04 14:20:19;;;;;;;8.30;7.12;;;;;;;6.83;45.82;100438.62;5511205;32;33865;-87
2022/04/04 14:23:23;;;;;;;9.13;7.10;;;;;;;6.79;45.91;100431.75;5521285;32;35193;-86
2022/04/04 14:26:27;;;;;;;9.82;7.12;;;;;;;6.92;46.17;100427.78;5519096;32;34288;-84
2022/04/04 14:29:33;;;;;;;12.63;7.50;;;;;;;6.96;46.14;100426.75;5522407;32;34340;-83
2022/04/04 14:32:37;;;;;;;12.20;8.00;;;;;;;6.87;46.50;100422.66;5509986;32;34454;-86
2022/04/04 14:35:40;;;;;;;13.68;8.07;;;;;;;6.93;46.68;100426.00;5510762;32;34567;-84
2022/04/04 14:38:44;;;;;;;11.02;7.18;;;;;;;6.75;47.96;100417.78;5511648;32;33721;-84
2022/04/04 14:41:48;;;;;;;9.10;7.03;;;;;;;6.79;47.36;100411.50;5511983;32;33931;-85
2022/04/04 14:44:54;;;;;;;9.27;7.95;;;;;;;6.88;47.50;100415.59;5512675;32;34157;-84
2022/04/04 14:47:56;;;;;;;12.73;8.20;;;;;;;6.79;47.32;100397.47;5510592;32;34849;-84
2022/04/04 14:51:00;;;;;;;13.18;9.15;;;;;;;6.72;48.00;100400.31;5518027;32;34384;-84
2022/04/04 14:54:03;;;;;;;11.90;9.05;;;;;;;6.42;49.67;100399.50;5510638;32;33799;-85
2022/04/04 14:57:06;;;;;;;13.82;9.10;;;;;;;6.28;49.96;100395.56;5511334;32;34338;-88
2022/04/04 15:00:12;;;;;;;11.43;8.88;;;;;;;6.22;50.31;100387.00;5515623;32;34405;-85
2022/04/04 15:03:15;;;;;;;11.98;9.48;;;;;;;6.13;50.70;100383.72;5515441;32;33564;-85
2022/04/04 15:06:21;;;;;;;13.73;9.23;;;;;;;6.25;50.39;100373.72;5510004;32;33909;-85
2022/04/04 15:09:23;;;;;;;13.10;9.80;;;;;;;6.01;51.32;100376.16;5510303;32;34328;-84
2022/04/04 15:12:28;;;;;;;14.18;9.88;;;;;;;5.97;52.01;100377.16;5511413;32;34285;-84
2022/04/04 15:15:31;;;;;;;12.20;9.63;;;;;;;6.05;52.55;100365.50;5511182;32;33840;-84
2022/04/04 15:18:34;;;;;;;11.02;9.07;;;;;;;5.99;53.00;100365.66;5510210;32;33801;-84
2022/04/04 15:21:38;;;;;;;14.60;9.70;;;;;;;6.06;51.61;100354.09;5509989;32;33827;-84
2022/04/04 15:24:41;;;;;;;13.05;9.85;;;;;;;5.92;51.97;100350.97;5509955;32;35705;-84
2022/04/04 15:27:44;;;;;;;14.35;9.25;;;;;;;6.16;52.51;100352.03;5510171;32;34650;-84
2022/04/04 15:30:47;;;;;;;14.18;9.43;;;;;;;6.23;53.08;100350.03;5510284;32;34467;-84
2022/04/04 15:33:50;;;;;;;12.55;8.75;;;;;;;6.20;51.79;100348.38;5515642;32;33929;-84
2022/04/04 15:36:54;;;;;;;14.45;8.77;;;;;;;6.17;51.98;100351.12;5515549;32;34654;-84
2022/04/04 15:39:58;;;;;;;11.98;8.93;;;;;;;6.02;52.47;100341.00;5510869;32;34315;-84
2022/04/04 15:43:01;;;;;;;13.30;9.25;;;;;;;5.93;52.80;100339.53;5510147;32;34156;-85
2022/04/04 15:46:05;;;;;;;12.05;8.60;;;;;;;5.82;53.87;100334.59;5513092;32;34884;-84
2022/04/04 15:49:09;;;;;;;10.20;8.50;;;;;;;5.83;53.02;100338.09;5509786;32;33965;-85
2022/04/04 15:52:13;;;;;;;12.80;8.95;;;;;;;5.89;52.44;100332.66;5510051;32;33895;-85
2022/04/04 15:55:16;;;;;;;14.98;8.50;;;;;;;5.82;53.29;100337.22;5509913;32;34618;-84
2022/04/04 15:58:20;;;;;;;13.23;8.38;;;;;;;5.84;52.43;100327.50;5509153;32;34528;-84
2022/04/04 16:01:26;;;;;;;10.27;8.40;;;;;;;5.87;53.19;100321.28;5509187;32;34553;-84
2022/04/04 16:04:31;;;;;;;10.82;8.55;;;;;;;5.83;53.15;100315.25;5508933;32;34452;-84
2022/04/04 16:07:34;;;;;;;10.52;8.35;;;;;;;5.86;52.88;100315.19;5509267;32;34013;-86
2022/04/04 16:10:37;;;;;;;10.35;8.18;;;;;;;5.72;53.07;100302.44;5509341;32;33692;-86
2022/04/04 16:13:40;;;;;;;12.30;8.00;;;;;;;5.73;53.32;100300.69;5509392;32;34385;-85
2022/04/04 16:16:43;;;;;;;10.23;7.50;;;;;;;5.73;53.23;100298.03;5508901;32;34501;-85
2022/04/04 16:19:46;;;;;;;11.63;8.25;;;;;;;5.78;52.87;100291.72;5508911;32;34010;-85
2022/04/04 16:22:49;;;;;;;13.45;8.05;;;;;;;5.87;52.79;100276.53;5509318;32;33974;-85
2022/04/04 16:25:53;;;;;;;11.55;8.23;;;;;;;5.77;53.37;100281.22;5512962;32;34944;-84
2022/04/04 16:28:56;;;;;;;13.43;8.50;;;;;;;5.86;52.73;100275.69;5508781;32;34144;-85
2022/04/04 16:31:59;;;;;;;12.65;8.88;;;;;;;5.79;52.90;100274.16;5508355;32;33988;-85
2022/04/04 16:35:02;;;;;;;11.45;8.73;;;;;;;5.65;54.17;100277.22;5508140;32;33955;-85
2022/04/04 16:38:06;;;;;;;11.80;8.95;;;;;;;5.61;53.74;100262.44;5508490;32;33875;-85
2022/04/04 16:41:09;;;;;;;12.80;9.02;;;;;;;5.54;54.63;100259.12;5508228;32;34604;-85
2022/04/04 16:44:12;;;;;;;13.13;9.02;;;;;;;5.62;54.54;100262.38;5508307;32;34569;-85
2022/04/04 16:47:15;;;;;;;11.55;9.57;;;;;;;5.62;54.36;100261.50;5508514;32;34145;-86
2022/04/04 16:50:20;;;;;;;13.35;9.25;;;;;;;5.69;53.86;100249.03;5532058;32;34040;-85
2022/04/04 16:53:23;;;;;;;12.43;9.20;;;;;;;5.70;54.32;100243.72;5528152;32;35292;-85
2022/04/04 16:56:26;;;;;;;12.05;9.32;;;;;;;5.57;55.27;100250.28;5527241;32;34212;-85
2022/04/04 16:59:29;;;;;;;12.75;9.30;;;;;;;5.60;55.69;100245.78;5527038;32;34462;-86
2022/04/04 17:02:32;;;;;;;11.63;9.05;;;;;;;5.61;55.87;100233.47;5527013;32;33953;-85
2022/04/04 17:05:35;;;;;;;13.20;9.20;;;;;;;5.56;56.05;100233.63;5530102;32;33719;-85
2022/04/04 17:08:37;;;;;;;12.85;8.73;;;;;;;5.55;56.13;100225.78;5534962;32;34877;-87
2022/04/04 17:11:41;;;;;;;11.93;8.68;;;;;;;5.47;56.43;100221.62;5535090;32;35163;-90